createdAt,value
2019-03-02T00:00:29.796Z,1006.72
2019-03-02T00:01:28.440Z,1006.75
2019-03-02T00:02:26.997Z,1006.79
2019-03-02T00:03:25.584Z,1006.81
2019-03-02T00:04:24.143Z,1006.78
2019-03-02T00:05:24.239Z,1006.85
2019-03-02T00:06:21.492Z,1006.86
2019-03-02T00:07:20.068Z,1006.83
2019-03-02T00:08:21.765Z,1006.83
2019-03-02T00:09:17.181Z,1006.82
2019-03-02T00:10:15.729Z,1006.79
2019-03-02T00:11:14.276Z,1006.77
2019-03-02T00:12:12.881Z,1006.8
2019-03-02T00:13:11.422Z,1006.78
2019-03-02T00:14:10.155Z,1006.85
2019-03-02T00:15:08.983Z,1006.81
2019-03-02T00:19:49.856Z,1006.81
2019-03-02T00:20:49.870Z,1006.77
2019-03-02T00:21:47.025Z,1006.82
2019-03-02T00:22:45.601Z,1006.89
2019-03-02T00:23:44.154Z,1006.88
2019-03-02T00:26:24.625Z,1006.86
2019-03-02T00:27:23.283Z,1006.86
2019-03-02T00:31:02.461Z,1006.78
2019-03-02T00:32:01.138Z,1006.79
2019-03-02T00:32:59.734Z,1006.82
2019-03-02T00:33:58.267Z,1006.81
2019-03-02T00:34:56.989Z,1006.78
2019-03-02T00:35:55.489Z,1006.79
2019-03-02T00:36:54.852Z,1006.74
2019-03-02T00:37:52.618Z,1006.73
2019-03-02T00:38:51.715Z,1006.75
2019-03-02T00:39:54.325Z,1006.74
2019-03-02T00:40:49.159Z,1006.68
2019-03-02T00:41:48.696Z,1006.7
2019-03-02T00:42:48.711Z,1006.67
2019-03-02T00:43:45.055Z,1006.69
2019-03-02T00:44:43.590Z,1006.64
2019-03-02T00:45:42.314Z,1006.62
2019-03-02T00:46:40.896Z,1006.63
2019-03-02T00:47:39.503Z,1006.65
2019-03-02T00:48:38.332Z,1006.64
2019-03-02T00:49:36.856Z,1006.67
2019-03-02T00:50:36.496Z,1006.61
2019-03-02T00:51:36.489Z,1006.65
2019-03-02T00:52:32.894Z,1006.67
2019-03-02T00:53:35.453Z,1006.65
2019-03-02T00:54:30.141Z,1006.64
2019-03-02T00:55:31.734Z,1006.68
2019-03-02T00:56:27.369Z,1006.64
2019-03-02T00:57:25.970Z,1006.66
2019-03-02T00:58:28.895Z,1006.71
2019-03-02T00:59:24.454Z,1006.69
2019-03-02T01:00:23.096Z,1006.71
2019-03-02T01:01:21.641Z,1006.76
2019-03-02T01:02:20.331Z,1006.75
2019-03-02T01:03:18.951Z,1006.73
2019-03-02T01:04:17.594Z,1006.74
2019-03-02T01:05:16.248Z,1006.71
2019-03-02T01:06:14.933Z,1006.8
2019-03-02T01:07:13.486Z,1006.82
2019-03-02T01:08:12.843Z,1006.84
2019-03-02T01:09:12.741Z,1006.87
2019-03-02T01:10:10.707Z,1006.89
2019-03-02T01:11:09.254Z,1006.85
2019-03-02T01:12:09.099Z,1006.84
2019-03-02T01:13:07.398Z,1006.91
2019-03-02T01:14:06.073Z,1006.95
2019-03-02T01:15:08.391Z,1006.87
2019-03-02T01:16:03.216Z,1006.9
2019-03-02T01:17:01.807Z,1006.9
2019-03-02T01:18:03.644Z,1006.87
2019-03-02T01:18:59.158Z,1006.9
2019-03-02T01:19:57.709Z,1006.86
2019-03-02T01:20:56.366Z,1006.88
2019-03-02T01:21:54.895Z,1006.92
2019-03-02T01:22:53.479Z,1006.83
2019-03-02T01:23:52.009Z,1006.79
2019-03-02T01:24:50.775Z,1006.8
2019-03-02T01:25:49.736Z,1006.8
2019-03-02T01:26:47.883Z,1006.79
2019-03-02T01:27:46.630Z,1006.82
2019-03-02T01:28:45.379Z,1006.79
2019-03-02T01:29:43.764Z,1006.79
2019-03-02T01:30:42.370Z,1006.79
2019-03-02T01:31:41.724Z,1006.81
2019-03-02T01:32:39.486Z,1006.76
2019-03-02T01:33:38.055Z,1006.75
2019-03-02T01:34:38.696Z,1006.74
2019-03-02T01:35:35.231Z,1006.73
2019-03-02T01:36:33.890Z,1006.71
2019-03-02T01:37:32.547Z,1006.75
2019-03-02T01:38:31.230Z,1006.72
2019-03-02T01:39:30.144Z,1006.72
2019-03-02T01:40:28.426Z,1006.71
2019-03-02T01:41:26.975Z,1006.69
2019-03-02T01:42:25.795Z,1006.68
2019-03-02T01:43:24.049Z,1006.68
2019-03-02T01:44:22.599Z,1006.64
2019-03-02T01:45:23.889Z,1006.68
2019-03-02T01:46:19.690Z,1006.67
2019-03-02T01:47:18.278Z,1006.67
2019-03-02T01:48:16.816Z,1006.7
2019-03-02T01:49:15.388Z,1006.67
2019-03-02T01:50:13.939Z,1006.64
2019-03-02T01:51:12.700Z,1006.67
2019-03-02T01:52:11.273Z,1006.58
2019-03-02T01:53:10.035Z,1006.64
2019-03-02T01:54:08.627Z,1006.57
2019-03-02T01:55:07.174Z,1006.59
2019-03-02T01:56:06.053Z,1006.56
2019-03-02T01:57:04.290Z,1006.62
2019-03-02T01:58:02.883Z,1006.57
2019-03-02T01:59:03.896Z,1006.58
2019-03-02T01:59:59.994Z,1006.49
2019-03-02T02:00:58.610Z,1006.3
2019-03-02T02:02:00.047Z,1006.17
2019-03-02T02:02:55.726Z,1006.14
2019-03-02T02:03:54.414Z,1005.98
2019-03-02T02:04:54.482Z,1005.89
2019-03-02T02:08:31.780Z,1005.97
2019-03-02T02:09:30.354Z,1006.05
2019-03-02T02:12:10.562Z,1006.04
2019-03-02T02:13:09.083Z,1006.11
2019-03-02T02:14:07.668Z,1006.14
2019-03-02T02:15:06.328Z,1006.16
2019-03-02T02:16:05.607Z,1006.12
2019-03-02T02:17:03.502Z,1006.19
2019-03-02T02:20:24.776Z,1006.16
2019-03-02T02:21:23.595Z,1006.2
2019-03-02T02:22:22.039Z,1006.26
2019-03-02T02:23:20.747Z,1006.22
2019-03-02T02:24:21.704Z,1006.23
2019-03-02T02:25:17.839Z,1006.23
2019-03-02T02:26:16.487Z,1006.29
2019-03-02T02:27:15.186Z,1006.24
2019-03-02T02:28:13.780Z,1006.26
2019-03-02T02:29:12.457Z,1006.29
2019-03-02T02:30:11.043Z,1006.31
2019-03-02T02:31:09.609Z,1006.31
2019-03-02T02:32:08.197Z,1006.31
2019-03-02T02:33:06.881Z,1006.26
2019-03-02T02:34:05.441Z,1006.32
2019-03-02T02:35:04.117Z,1006.27
2019-03-02T02:36:02.682Z,1006.29
2019-03-02T02:37:01.244Z,1006.31
2019-03-02T02:38:00.984Z,1006.24
2019-03-02T02:38:59.547Z,1006.29
2019-03-02T02:39:58.104Z,1006.25
2019-03-02T02:40:56.699Z,1006.27
2019-03-02T02:41:59.933Z,1006.18
2019-03-02T02:42:53.841Z,1006.2
2019-03-02T02:43:54.117Z,1006.23
2019-03-02T02:44:51.735Z,1006.22
2019-03-02T02:45:53.524Z,1006.21
2019-03-02T02:46:48.356Z,1006.19
2019-03-02T02:47:51.613Z,1006.21
2019-03-02T02:48:45.595Z,1006.16
2019-03-02T02:49:48.992Z,1006.13
2019-03-02T02:50:43.072Z,1006.14
2019-03-02T02:51:44.289Z,1006.1
2019-03-02T02:52:39.959Z,1006.1
2019-03-02T02:53:40.072Z,1006.12
2019-03-02T02:54:37.088Z,1006.09
2019-03-02T02:55:40.654Z,1006.14
2019-03-02T02:56:34.763Z,1006.1
2019-03-02T02:57:33.476Z,1006.11
2019-03-02T02:58:31.628Z,1006.14
2019-03-02T02:59:33.874Z,1006.11
2019-03-02T03:00:28.996Z,1006.1
2019-03-02T03:01:32.741Z,1006.08
2019-03-02T03:02:26.103Z,1006.1
2019-03-02T03:03:24.675Z,1006.03
2019-03-02T03:04:23.229Z,1006.15
2019-03-02T03:05:21.788Z,1006.06
2019-03-02T03:06:20.596Z,1006.07
2019-03-02T03:07:19.302Z,1006.08
2019-03-02T03:08:18.769Z,1006.03
2019-03-02T03:09:17.287Z,1006.08
2019-03-02T03:10:15.833Z,1006.11
2019-03-02T03:11:14.579Z,1006.09
2019-03-02T03:12:13.168Z,1006.07
2019-03-02T03:13:11.710Z,1006.01
2019-03-02T03:14:10.290Z,1005.97
2019-03-02T03:15:08.848Z,1006
2019-03-02T03:16:11.469Z,1005.99
2019-03-02T03:17:05.994Z,1005.98
2019-03-02T03:18:06.881Z,1006.01
2019-03-02T03:19:03.339Z,1005.98
2019-03-02T03:20:05.415Z,1005.97
2019-03-02T03:21:00.595Z,1005.98
2019-03-02T03:22:02.110Z,1005.95
2019-03-02T03:22:57.777Z,1005.92
2019-03-02T03:24:02.732Z,1005.94
2019-03-02T03:24:54.921Z,1005.91
2019-03-02T03:25:56.945Z,1005.94
2019-03-02T03:26:52.099Z,1005.93
2019-03-02T03:27:51.715Z,1005.96
2019-03-02T03:28:49.478Z,1005.9
2019-03-02T03:29:49.276Z,1005.89
2019-03-02T03:30:47.355Z,1005.9
2019-03-02T03:31:45.904Z,1005.9
2019-03-02T03:34:29.801Z,1005.89
2019-03-02T03:35:25.023Z,1005.91
2019-03-02T03:36:23.583Z,1005.87
2019-03-02T03:37:22.484Z,1005.87
2019-03-02T03:38:24.792Z,1005.89
2019-03-02T03:39:19.825Z,1005.96
2019-03-02T03:40:19.960Z,1005.92
2019-03-02T03:41:17.003Z,1005.95
2019-03-02T03:42:22.170Z,1005.93
2019-03-02T03:43:14.077Z,1005.89
2019-03-02T03:44:17.084Z,1005.89
2019-03-02T03:45:11.166Z,1005.91
2019-03-02T03:46:09.716Z,1005.86
2019-03-02T03:47:08.297Z,1005.9
2019-03-02T03:49:48.618Z,1005.86
2019-03-02T03:50:47.942Z,1005.89
2019-03-02T03:51:46.062Z,1005.85
2019-03-02T03:56:07.823Z,1005.92
2019-03-02T03:57:06.532Z,1005.87
2019-03-02T03:58:05.200Z,1005.88
2019-03-02T03:59:03.810Z,1005.84
2019-03-02T04:00:02.438Z,1005.82
2019-03-02T04:17:56.820Z,1005.92
2019-03-02T04:18:57.737Z,1005.92
2019-03-02T04:19:54.078Z,1005.86
2019-03-02T04:20:52.854Z,1005.83
2019-03-02T04:21:51.412Z,1005.86
2019-03-02T04:22:49.987Z,1005.83
2019-03-02T04:23:48.540Z,1005.83
2019-03-02T04:24:47.071Z,1005.85
2019-03-02T04:25:45.631Z,1005.84
2019-03-02T04:26:44.195Z,1005.83
2019-03-02T04:27:42.983Z,1005.81
2019-03-02T04:28:41.550Z,1005.85
2019-03-02T04:29:48.773Z,1005.88
2019-03-02T04:30:39.234Z,1005.9
2019-03-02T04:31:37.793Z,1005.87
2019-03-02T04:32:36.612Z,1005.9
2019-03-02T04:33:39.021Z,1005.93
2019-03-02T04:34:33.797Z,1005.98
2019-03-02T04:35:33.636Z,1005.99
2019-03-02T04:36:31.082Z,1005.96
2019-03-02T04:37:29.632Z,1005.94
2019-03-02T04:38:28.209Z,1005.93
2019-03-02T04:39:26.769Z,1005.99
2019-03-02T04:40:27.641Z,1006
2019-03-02T04:41:23.911Z,1005.93
2019-03-02T04:42:22.728Z,1005.98
2019-03-02T04:43:21.254Z,1005.99
2019-03-02T04:44:19.830Z,1005.99
2019-03-02T04:45:18.481Z,1005.95
2019-03-02T04:46:17.122Z,1005.93
2019-03-02T04:47:15.698Z,1005.93
2019-03-02T04:48:14.293Z,1005.96
2019-03-02T04:49:14.531Z,1005.91
2019-03-02T04:50:11.414Z,1005.95
2019-03-02T04:51:10.009Z,1005.93
2019-03-02T04:52:11.498Z,1005.95
2019-03-02T04:53:07.157Z,1005.98
2019-03-02T04:54:05.741Z,1005.95
2019-03-02T04:55:04.420Z,1005.98
2019-03-02T04:56:03.142Z,1005.93
2019-03-02T04:57:01.698Z,1005.94
2019-03-02T04:58:00.313Z,1005.93
2019-03-02T04:58:58.883Z,1005.93
2019-03-02T04:59:57.666Z,1005.92
2019-03-02T05:00:56.060Z,1005.91
2019-03-02T05:01:54.655Z,1005.9
2019-03-02T05:02:55.121Z,1005.89
2019-03-02T05:03:53.679Z,1005.88
2019-03-02T05:04:50.578Z,1005.88
2019-03-02T05:05:49.296Z,1005.88
2019-03-02T05:06:50.519Z,1005.85
2019-03-02T05:07:46.584Z,1005.91
2019-03-02T05:08:45.124Z,1005.85
2019-03-02T05:09:43.688Z,1005.81
2019-03-02T05:10:42.301Z,1005.81
2019-03-02T05:11:40.957Z,1005.81
2019-03-02T05:12:39.526Z,1005.79
2019-03-02T05:13:38.217Z,1005.85
2019-03-02T05:14:40.120Z,1005.78
2019-03-02T05:15:35.385Z,1005.79
2019-03-02T05:16:33.924Z,1005.81
2019-03-02T05:17:32.774Z,1005.78
2019-03-02T05:18:31.376Z,1005.78
2019-03-02T05:19:30.006Z,1005.8
2019-03-02T05:20:28.590Z,1005.78
2019-03-02T05:21:27.183Z,1005.77
2019-03-02T05:22:25.736Z,1005.78
2019-03-02T05:23:27.554Z,1005.74
2019-03-02T05:24:23.007Z,1005.72
2019-03-02T05:25:21.709Z,1005.72
2019-03-02T05:26:20.357Z,1005.73
2019-03-02T05:27:18.921Z,1005.72
2019-03-02T05:28:17.464Z,1005.7
2019-03-02T05:29:17.667Z,1005.7
2019-03-02T05:30:14.589Z,1005.63
2019-03-02T05:31:13.877Z,1005.63
2019-03-02T05:32:12.500Z,1005.62
2019-03-02T05:33:10.263Z,1005.64
2019-03-02T05:34:08.954Z,1005.65
2019-03-02T05:35:07.499Z,1005.62
2019-03-02T05:36:06.113Z,1005.59
2019-03-02T05:37:04.825Z,1005.6
2019-03-02T05:38:03.383Z,1005.6
2019-03-02T05:39:01.995Z,1005.55
2019-03-02T05:40:00.607Z,1005.57
2019-03-02T05:43:43.330Z,1005.55
2019-03-02T05:44:41.882Z,1005.56
2019-03-02T05:45:40.657Z,1005.55
2019-03-02T05:46:39.243Z,1005.58
2019-03-02T05:47:37.794Z,1005.51
2019-03-02T05:48:38.900Z,1005.55
2019-03-02T05:49:35.115Z,1005.54
2019-03-02T05:50:33.705Z,1005.52
2019-03-02T05:51:32.199Z,1005.57
2019-03-02T05:52:30.775Z,1005.49
2019-03-02T05:53:30.218Z,1005.54
2019-03-02T05:54:27.978Z,1005.51
2019-03-02T05:55:26.748Z,1005.52
2019-03-02T05:56:25.886Z,1005.56
2019-03-02T05:57:23.846Z,1005.56
2019-03-02T05:58:22.644Z,1005.54
2019-03-02T05:59:22.760Z,1005.54
2019-03-02T06:00:19.793Z,1005.54
2019-03-02T06:01:18.343Z,1005.57
2019-03-02T06:02:17.206Z,1005.54
2019-03-02T06:03:15.543Z,1005.55
2019-03-02T06:04:14.081Z,1005.57
2019-03-02T06:05:12.801Z,1005.51
2019-03-02T06:07:53.755Z,1005.5
2019-03-02T06:08:51.828Z,1005.49
2019-03-02T06:11:07.580Z,1005.44
2019-03-02T06:13:48.300Z,1005.41
2019-03-02T06:14:46.856Z,1005.48
2019-03-02T06:15:46.380Z,1005.46
2019-03-02T06:16:43.975Z,1005.42
2019-03-02T06:17:42.527Z,1005.43
2019-03-02T06:18:42.487Z,1005.45
2019-03-02T06:19:39.758Z,1005.47
2019-03-02T06:20:38.404Z,1005.41
2019-03-02T06:21:37.084Z,1005.43
2019-03-02T06:22:35.731Z,1005.43
2019-03-02T06:23:34.423Z,1005.41
2019-03-02T06:24:32.971Z,1005.41
2019-03-02T06:25:31.619Z,1005.38
2019-03-02T06:26:31.685Z,1005.42
2019-03-02T06:27:28.962Z,1005.38
2019-03-02T06:28:27.506Z,1005.4
2019-03-02T06:29:29.356Z,1005.4
2019-03-02T06:30:24.971Z,1005.39
2019-03-02T06:31:23.514Z,1005.41
2019-03-02T06:32:22.176Z,1005.41
2019-03-02T06:33:20.717Z,1005.37
2019-03-02T06:34:19.691Z,1005.44
2019-03-02T06:35:17.807Z,1005.37
2019-03-02T06:36:16.627Z,1005.39
2019-03-02T06:37:16.961Z,1005.38
2019-03-02T06:38:13.823Z,1005.4
2019-03-02T06:39:12.716Z,1005.36
2019-03-02T06:40:11.406Z,1005.39
2019-03-02T06:41:09.922Z,1005.35
2019-03-02T06:42:09.790Z,1005.4
2019-03-02T06:43:07.361Z,1005.37
2019-03-02T06:44:05.945Z,1005.34
2019-03-02T06:45:05.595Z,1005.4
2019-03-02T06:46:03.546Z,1005.35
2019-03-02T06:47:02.097Z,1005.4
2019-03-02T06:48:00.896Z,1005.42
2019-03-02T06:48:59.425Z,1005.4
2019-03-02T06:49:59.285Z,1005.39
2019-03-02T06:50:56.805Z,1005.4
2019-03-02T06:51:55.372Z,1005.38
2019-03-02T06:52:53.933Z,1005.35
2019-03-02T06:53:52.599Z,1005.37
2019-03-02T06:54:51.163Z,1005.38
2019-03-02T06:55:49.739Z,1005.37
2019-03-02T06:56:55.002Z,1005.34
2019-03-02T06:57:49.801Z,1005.32
2019-03-02T06:58:45.743Z,1005.32
2019-03-02T06:59:44.453Z,1005.3
2019-03-02T07:00:45.575Z,1005.33
2019-03-02T07:01:41.536Z,1005.27
2019-03-02T07:02:40.146Z,1005.28
2019-03-02T07:03:38.729Z,1005.31
2019-03-02T07:04:37.293Z,1005.33
2019-03-02T07:05:37.139Z,1005.28
2019-03-02T07:06:34.597Z,1005.32
2019-03-02T07:07:33.268Z,1005.29
2019-03-02T07:08:33.605Z,1005.32
2019-03-02T07:09:31.319Z,1005.33
2019-03-02T07:10:29.870Z,1005.35
2019-03-02T07:11:29.780Z,1005.31
2019-03-02T07:12:27.158Z,1005.28
2019-03-02T07:13:25.773Z,1005.28
2019-03-02T07:14:24.342Z,1005.27
2019-03-02T07:15:23.002Z,1005.28
2019-03-02T07:16:21.535Z,1005.23
2019-03-02T07:17:20.254Z,1005.27
2019-03-02T07:18:18.850Z,1005.25
2019-03-02T07:19:17.674Z,1005.24
2019-03-02T07:20:16.001Z,1005.26
2019-03-02T07:21:15.031Z,1005.26
2019-03-02T07:22:16.527Z,1005.26
2019-03-02T07:23:12.182Z,1005.25
2019-03-02T07:24:10.975Z,1005.23
2019-03-02T07:25:09.501Z,1005.21
2019-03-02T07:26:08.139Z,1005.2
2019-03-02T07:27:06.909Z,1005.16
2019-03-02T07:28:06.113Z,1005.19
2019-03-02T07:29:04.030Z,1005.18
2019-03-02T07:30:02.596Z,1005.18
2019-03-02T07:31:01.151Z,1005.2
2019-03-02T07:31:59.684Z,1005.22
2019-03-02T07:32:58.611Z,1005.22
2019-03-02T07:33:57.174Z,1005.21
2019-03-02T07:34:55.739Z,1005.21
2019-03-02T07:35:55.359Z,1005.22
2019-03-02T07:36:53.201Z,1005.24
2019-03-02T07:37:51.787Z,1005.24
2019-03-02T07:38:52.924Z,1005.31
2019-03-02T07:39:49.906Z,1005.25
2019-03-02T07:40:48.694Z,1005.26
2019-03-02T07:41:47.437Z,1005.19
2019-03-02T07:42:46.101Z,1005.21
2019-03-02T07:43:46.294Z,1005.23
2019-03-02T07:44:43.282Z,1005.26
2019-03-02T07:45:41.816Z,1005.24
2019-03-02T07:46:40.396Z,1005.3
2019-03-02T07:47:38.947Z,1005.28
2019-03-02T07:48:37.647Z,1005.34
2019-03-02T07:49:36.056Z,1005.32
2019-03-02T07:50:34.835Z,1005.29
2019-03-02T07:51:33.383Z,1005.27
2019-03-02T07:52:31.933Z,1005.24
2019-03-02T07:53:30.753Z,1005.26
2019-03-02T07:54:29.313Z,1005.3
2019-03-02T07:55:27.909Z,1005.25
2019-03-02T07:56:29.528Z,1005.26
2019-03-02T07:57:25.085Z,1005.25
2019-03-02T07:58:23.626Z,1005.25
2019-03-02T07:59:22.214Z,1005.27
2019-03-02T08:00:21.245Z,1005.23
2019-03-02T08:01:19.795Z,1005.23
2019-03-02T08:02:18.377Z,1005.19
2019-03-02T08:03:16.994Z,1005.26
2019-03-02T08:04:16.754Z,1005.25
2019-03-02T08:05:14.492Z,1005.25
2019-03-02T08:06:12.615Z,1005.27
2019-03-02T08:07:11.211Z,1005.25
2019-03-02T08:08:10.708Z,1005.19
2019-03-02T08:09:08.636Z,1005.21
2019-03-02T08:10:07.401Z,1005.21
2019-03-02T08:13:05.657Z,1005.18
2019-03-02T08:14:04.217Z,1005.18
2019-03-02T08:15:02.982Z,1005.22
2019-03-02T08:16:03.140Z,1005.18
2019-03-02T08:17:00.213Z,1005.17
2019-03-02T08:17:58.760Z,1005.21
2019-03-02T08:19:00.447Z,1005.18
2019-03-02T08:19:55.851Z,1005.17
2019-03-02T08:20:57.249Z,1005.17
2019-03-02T08:21:53.241Z,1005.2
2019-03-02T08:22:52.221Z,1005.14
2019-03-02T08:23:50.788Z,1005.23
2019-03-02T08:24:49.361Z,1005.2
2019-03-02T08:25:47.996Z,1005.17
2019-03-02T08:26:46.802Z,1005.19
2019-03-02T08:27:45.363Z,1005.18
2019-03-02T08:28:45.769Z,1005.18
2019-03-02T08:29:42.885Z,1005.13
2019-03-02T08:30:41.524Z,1005.19
2019-03-02T08:31:41.874Z,1005.17
2019-03-02T08:32:38.940Z,1005.17
2019-03-02T08:33:45.592Z,1005.19
2019-03-02T08:34:36.074Z,1005.17
2019-03-02T08:35:34.891Z,1005.09
2019-03-02T08:36:34.324Z,1005.1
2019-03-02T08:37:32.068Z,1005.14
2019-03-02T08:38:30.735Z,1005.11
2019-03-02T08:39:29.295Z,1005.16
2019-03-02T08:40:27.926Z,1005.1
2019-03-02T08:41:26.720Z,1005.14
2019-03-02T08:42:25.276Z,1005.13
2019-03-02T08:43:23.922Z,1005.1
2019-03-02T08:44:22.546Z,1005.09
2019-03-02T08:45:21.307Z,1005.06
2019-03-02T08:46:19.868Z,1005.07
2019-03-02T08:47:18.681Z,1005.05
2019-03-02T08:48:17.503Z,1005.02
2019-03-02T08:49:16.157Z,1005.08
2019-03-02T08:50:17.497Z,1005.04
2019-03-02T08:51:13.367Z,1005.06
2019-03-02T08:52:11.925Z,1005.09
2019-03-02T08:53:10.815Z,1005.04
2019-03-02T08:54:09.474Z,1005.08
2019-03-02T08:55:08.162Z,1005.04
2019-03-02T08:56:09.790Z,1005.08
2019-03-02T08:57:05.296Z,1005.09
2019-03-02T08:58:03.875Z,1005.11
2019-03-02T08:59:03.081Z,1005.17
2019-03-02T09:00:01.075Z,1005.09
2019-03-02T09:00:59.629Z,1005.1
2019-03-02T09:01:58.414Z,1005.09
2019-03-02T09:02:58.779Z,1005.08
2019-03-02T09:03:55.748Z,1005.11
2019-03-02T09:04:54.410Z,1005.06
2019-03-02T09:05:53.002Z,1005.08
2019-03-02T09:06:51.558Z,1005.03
2019-03-02T09:07:50.114Z,1005.02
2019-03-02T09:08:48.799Z,1005.03
2019-03-02T09:09:47.556Z,1005.06
2019-03-02T09:10:49.112Z,1005.07
2019-03-02T09:11:45.795Z,1005.03
2019-03-02T09:12:43.517Z,1005.06
2019-03-02T09:13:42.090Z,1005.04
2019-03-02T09:14:40.721Z,1005.05
2019-03-02T09:15:39.340Z,1005.06
2019-03-02T09:18:19.805Z,1005.06
2019-03-02T09:19:20.513Z,1005.04
2019-03-02T09:20:17.104Z,1005.09
2019-03-02T09:36:34.922Z,1005.09
2019-03-02T09:37:33.558Z,1005.07
2019-03-02T09:38:32.258Z,1004.98
2019-03-02T09:39:31.337Z,1004.98
2019-03-02T09:40:29.394Z,1004.96
2019-03-02T09:41:27.943Z,1005.03
2019-03-02T09:42:26.472Z,1004.96
2019-03-02T09:43:25.061Z,1004.99
2019-03-02T09:44:23.657Z,1004.97
2019-03-02T09:45:22.196Z,1004.94
2019-03-02T09:46:24.411Z,1004.98
2019-03-02T09:47:19.695Z,1004.97
2019-03-02T09:48:20.851Z,1004.92
2019-03-02T09:49:17.002Z,1004.92
2019-03-02T09:50:15.560Z,1004.96
2019-03-02T09:51:14.467Z,1004.97
2019-03-02T09:52:12.619Z,1005.05
2019-03-02T09:53:11.195Z,1004.98
2019-03-02T09:54:09.760Z,1005
2019-03-02T09:55:08.452Z,1004.96
2019-03-02T09:56:07.132Z,1004.98
2019-03-02T09:57:05.694Z,1004.96
2019-03-02T09:58:06.301Z,1004.94
2019-03-02T09:59:03.082Z,1004.93
2019-03-02T10:00:01.624Z,1004.94
2019-03-02T10:01:00.823Z,1004.95
2019-03-02T10:01:58.949Z,1004.89
2019-03-02T10:02:57.472Z,1004.92
2019-03-02T10:03:58.758Z,1004.93
2019-03-02T10:04:54.889Z,1004.92
2019-03-02T10:05:53.453Z,1004.93
2019-03-02T10:06:52.142Z,1004.89
2019-03-02T10:07:50.812Z,1004.91
2019-03-02T10:08:50.106Z,1004.88
2019-03-02T10:09:47.881Z,1004.82
2019-03-02T10:10:46.456Z,1004.85
2019-03-02T10:11:44.988Z,1004.8
2019-03-02T10:12:47.129Z,1004.8
2019-03-02T10:13:42.107Z,1004.8
2019-03-02T10:14:40.805Z,1004.81
2019-03-02T10:15:39.424Z,1004.82
2019-03-02T10:16:37.987Z,1004.83
2019-03-02T10:17:38.309Z,1004.81
2019-03-02T10:18:35.539Z,1004.84
2019-03-02T10:19:34.205Z,1004.83
2019-03-02T10:20:32.996Z,1004.78
2019-03-02T10:21:31.580Z,1004.8
2019-03-02T10:22:30.240Z,1004.79
2019-03-02T10:23:29.054Z,1004.81
2019-03-02T10:24:27.697Z,1004.81
2019-03-02T10:25:31.807Z,1004.8
2019-03-02T10:26:25.168Z,1004.83
2019-03-02T10:27:23.852Z,1004.8
2019-03-02T10:28:22.485Z,1004.84
2019-03-02T10:29:21.118Z,1004.88
2019-03-02T10:30:21.926Z,1004.89
2019-03-02T10:31:18.222Z,1004.84
2019-03-02T10:32:16.778Z,1004.87
2019-03-02T10:33:15.424Z,1004.83
2019-03-02T10:34:13.960Z,1004.84
2019-03-02T10:35:13.549Z,1004.81
2019-03-02T10:36:11.216Z,1004.79
2019-03-02T10:37:09.800Z,1004.81
2019-03-02T10:38:08.357Z,1004.82
2019-03-02T10:39:07.122Z,1004.86
2019-03-02T10:40:08.537Z,1004.81
2019-03-02T10:41:04.283Z,1004.81
2019-03-02T10:42:02.915Z,1004.84
2019-03-02T10:43:01.450Z,1004.85
2019-03-02T10:43:59.982Z,1004.85
2019-03-02T10:44:59.800Z,1004.86
2019-03-02T10:45:57.232Z,1004.87
2019-03-02T10:46:55.788Z,1004.88
2019-03-02T10:47:54.452Z,1004.88
2019-03-02T10:48:53.241Z,1004.85
2019-03-02T10:49:51.895Z,1004.87
2019-03-02T10:50:50.480Z,1004.84
2019-03-02T10:51:49.021Z,1004.82
2019-03-02T10:52:48.841Z,1004.82
2019-03-02T10:53:46.120Z,1004.84
2019-03-02T10:54:44.778Z,1004.89
2019-03-02T10:55:44.741Z,1004.87
2019-03-02T10:56:42.106Z,1004.88
2019-03-02T10:57:40.682Z,1004.87
2019-03-02T10:58:39.846Z,1004.87
2019-03-02T10:59:37.901Z,1004.79
2019-03-02T11:00:36.494Z,1004.82
2019-03-02T11:01:35.031Z,1004.82
2019-03-02T11:02:33.621Z,1004.78
2019-03-02T11:03:32.980Z,1004.76
2019-03-02T11:04:30.754Z,1004.74
2019-03-02T11:05:29.322Z,1004.72
2019-03-02T11:06:29.573Z,1004.71
2019-03-02T11:07:26.386Z,1004.7
2019-03-02T11:08:25.485Z,1004.69
2019-03-02T11:09:23.557Z,1004.67
2019-03-02T11:10:22.116Z,1004.66
2019-03-02T11:11:20.847Z,1004.68
2019-03-02T11:12:19.496Z,1004.71
2019-03-02T11:13:19.192Z,1004.68
2019-03-02T11:14:16.797Z,1004.66
2019-03-02T11:15:15.339Z,1004.7
2019-03-02T11:16:13.903Z,1004.66
2019-03-02T11:17:12.555Z,1004.67
2019-03-02T11:18:11.168Z,1004.61
2019-03-02T11:19:11.378Z,1004.66
2019-03-02T11:20:08.310Z,1004.61
2019-03-02T11:21:06.956Z,1004.65
2019-03-02T11:22:05.569Z,1004.65
2019-03-02T11:23:04.965Z,1004.61
2019-03-02T11:24:03.022Z,1004.64
2019-03-02T11:25:01.606Z,1004.58
2019-03-02T11:26:00.159Z,1004.58
2019-03-02T11:26:58.745Z,1004.55
2019-03-02T11:27:57.293Z,1004.56
2019-03-02T11:28:55.855Z,1004.54
2019-03-02T11:29:54.635Z,1004.61
2019-03-02T11:30:53.216Z,1004.56
2019-03-02T11:31:51.743Z,1004.56
2019-03-02T11:32:52.562Z,1004.57
2019-03-02T11:33:49.082Z,1004.6
2019-03-02T11:34:47.668Z,1004.56
2019-03-02T11:35:46.227Z,1004.56
2019-03-02T11:36:45.767Z,1004.57
2019-03-02T11:37:43.325Z,1004.56
2019-03-02T11:38:41.907Z,1004.52
2019-03-02T11:39:40.439Z,1004.52
2019-03-02T11:40:39.098Z,1004.48
2019-03-02T11:41:37.679Z,1004.5
2019-03-02T11:42:36.253Z,1004.46
2019-03-02T11:43:36.770Z,1004.47
2019-03-02T11:44:33.490Z,1004.45
2019-03-02T11:45:32.105Z,1004.43
2019-03-02T11:46:30.861Z,1004.44
2019-03-02T11:47:32.943Z,1004.47
2019-03-02T11:48:27.950Z,1004.46
2019-03-02T11:49:30.239Z,1004.41
2019-03-02T11:50:25.448Z,1004.41
2019-03-02T11:51:27.048Z,1004.41
2019-03-02T11:52:22.914Z,1004.39
2019-03-02T11:53:21.434Z,1004.42
2019-03-02T11:54:20.022Z,1004.4
2019-03-02T11:55:18.725Z,1004.4
2019-03-02T11:56:25.029Z,1004.44
2019-03-02T11:57:17.730Z,1004.4
2019-03-02T11:58:14.610Z,1004.34
2019-03-02T11:59:13.319Z,1004.38
2019-03-02T12:00:11.891Z,1004.35
2019-03-02T12:01:10.561Z,1004.37
2019-03-02T12:02:15.576Z,1004.32
2019-03-02T12:03:07.687Z,1004.37
2019-03-02T12:04:06.263Z,1004.36
2019-03-02T12:05:04.812Z,1004.36
2019-03-02T12:06:05.803Z,1004.36
2019-03-02T12:07:02.079Z,1004.35
2019-03-02T12:08:00.730Z,1004.37
2019-03-02T12:09:01.170Z,1004.36
2019-03-02T12:10:00.925Z,1004.32
2019-03-02T12:10:56.839Z,1004.37
2019-03-02T12:11:55.429Z,1004.36
2019-03-02T12:12:55.473Z,1004.37
2019-03-02T12:13:52.809Z,1004.31
2019-03-02T12:14:51.403Z,1004.34
2019-03-02T12:15:50.233Z,1004.31
2019-03-02T12:16:48.506Z,1004.32
2019-03-02T12:17:47.120Z,1004.3
2019-03-02T12:18:45.689Z,1004.26
2019-03-02T12:19:44.365Z,1004.21
2019-03-02T12:20:45.279Z,1004.26
2019-03-02T12:21:41.553Z,1004.21
2019-03-02T12:22:40.147Z,1004.22
2019-03-02T12:23:38.876Z,1004.23
2019-03-02T12:24:37.468Z,1004.25
2019-03-02T12:25:36.501Z,1004.17
2019-03-02T12:26:35.041Z,1004.17
2019-03-02T12:27:33.711Z,1004.16
2019-03-02T12:28:32.930Z,1004.15
2019-03-02T12:29:31.053Z,1004.21
2019-03-02T12:30:29.636Z,1004.19
2019-03-02T12:31:31.793Z,1004.19
2019-03-02T12:32:27.027Z,1004.2
2019-03-02T12:33:25.875Z,1004.22
2019-03-02T12:34:24.528Z,1004.17
2019-03-02T12:35:23.197Z,1004.18
2019-03-02T12:36:21.807Z,1004.15
2019-03-02T12:37:20.676Z,1004.14
2019-03-02T12:38:19.123Z,1004.07
2019-03-02T12:39:19.896Z,1004.1
2019-03-02T12:40:16.261Z,1004.02
2019-03-02T12:41:15.659Z,1004.08
2019-03-02T12:42:13.418Z,1004.09
2019-03-02T12:43:12.077Z,1004.11
2019-03-02T12:44:10.806Z,1004.06
2019-03-02T12:45:09.427Z,1004.01
2019-03-02T12:46:09.310Z,1004
2019-03-02T12:47:06.741Z,1003.99
2019-03-02T12:48:05.383Z,1003.94
2019-03-02T12:49:06.846Z,1003.99
2019-03-02T12:50:02.521Z,1003.99
2019-03-02T12:51:02.803Z,1003.97
2019-03-02T12:51:59.668Z,1003.94
2019-03-02T12:52:58.230Z,1003.91
2019-03-02T12:53:56.992Z,1003.92
2019-03-02T12:54:55.604Z,1003.93
2019-03-02T12:55:56.807Z,1003.86
2019-03-02T12:56:52.927Z,1003.85